Colazo, Argentina
Current Conditions -  °F | °C
As of 5:00 AM on Friday 21 Nov 2014 (Local Time) from SACO Reporting Station
Moderate Rain Moderate Rain  
Wind Chill: 54°   Ceiling: 5000
Heat Index: 54°   Visibility: 3mi
Dew Point: 50°   Wind: 10mph
Humidity: 88%   Direction: 200°SSW
Pressure: 30.09"   Gusts: NA
Location:  31.88°S, 63.42°W
Report Text: SACO 210800Z 20009KT 5000 RA SCT006BKN050 12/10 Q1019
Loading
Personal Weather Stations






























Interactive Weather Map New forecast layout! Learn more

10-Day Weather Forecast

Advertisements
Track Severe Weather on mobile